Time;durP1;ratioP1;P1;durP2;ratioP2;P2;SDS_P1;SDS_P2;PMS_P1;PMS_P2;Temp;Humidity;BMP_temperature;BMP_pressure;BME280_temperature;BME280_humidity;BME280_pressure;Samples;Min_cycle;Max_cycle;Signal;HPM_P1;HPM_P2
2023/08/06 00:01:29;;;;;;;6.38;4.95;;;14.90;99.90;;;;;;5046771;28;20042;-65
2023/08/06 00:04:01;;;;;;;6.35;5.18;;;14.90;99.90;;;;;;5027647;28;20128;-65
2023/08/06 00:06:33;;;;;;;7.55;5.55;;;14.80;99.90;;;;;;5027533;28;20046;-65
2023/08/06 00:09:05;;;;;;;6.25;5.50;;;14.80;99.90;;;;;;5047689;28;20496;-65
2023/08/06 00:11:37;;;;;;;7.88;5.60;;;14.70;99.90;;;;;;5042049;28;20048;-65
2023/08/06 00:14:08;;;;;;;5.60;4.93;;;14.60;99.90;;;;;;5040776;28;20072;-65
2023/08/06 00:16:40;;;;;;;6.25;5.65;;;14.70;99.90;;;;;;5032896;28;20497;-65
2023/08/06 00:19:07;;;;;;;6.03;5.20;;;14.70;99.90;;;;;;5040859;28;20049;-65
2023/08/06 00:21:39;;;;;;;6.35;4.78;;;14.70;99.90;;;;;;5035326;28;20041;-65
2023/08/06 00:24:11;;;;;;;5.38;4.28;;;14.60;99.90;;;;;;5030597;28;20041;-65
2023/08/06 00:26:43;;;;;;;5.00;4.40;;;14.50;99.90;;;;;;5041436;28;20420;-65
2023/08/06 00:29:09;;;;;;;4.88;4.18;;;14.50;99.90;;;;;;5028994;28;20033;-64
2023/08/06 00:31:41;;;;;;;5.07;4.15;;;14.40;99.90;;;;;;5023410;28;20042;-64
2023/08/06 00:34:08;;;;;;;5.80;3.90;;;14.30;99.90;;;;;;5023799;28;20057;-65
2023/08/06 00:36:41;;;;;;;6.72;4.25;;;14.30;99.90;;;;;;5039693;28;20096;-69
2023/08/06 00:39:08;;;;;;;5.05;3.55;;;14.20;99.90;;;;;;5036370;28;20057;-65
2023/08/06 00:41:40;;;;;;;4.10;3.65;;;14.20;99.90;;;;;;5020588;28;20041;-64
2023/08/06 00:44:12;;;;;;;4.68;3.45;;;14.20;99.90;;;;;;5023985;28;20136;-65
2023/08/06 00:46:44;;;;;;;3.47;3.17;;;14.10;99.90;;;;;;5005162;28;20052;-65
2023/08/06 00:49:16;;;;;;;4.00;3.58;;;14.10;99.90;;;;;;5044891;28;20041;-65
2023/08/06 00:51:43;;;;;;;3.35;3.03;;;14.10;99.90;;;;;;5057231;28;20128;-66
2023/08/06 00:54:15;;;;;;;4.10;3.20;;;14.10;99.90;;;;;;5035163;28;20044;-65
2023/08/06 00:56:49;;;;;;;4.90;3.00;;;14.10;99.90;;;;;;5023461;28;20046;-65
2023/08/06 00:59:21;;;;;;;3.63;3.10;;;14.10;99.90;;;;;;5049510;22;20047;-65
2023/08/06 01:01:53;;;;;;;3.75;2.90;;;14.10;99.90;;;;;;5096191;28;20404;-65
2023/08/06 01:04:25;;;;;;;4.28;2.70;;;14.00;99.90;;;;;;5088235;28;20059;-65
2023/08/06 01:07:16;;;;;;;3.10;2.80;;;14.00;99.90;;;;;;5095586;28;20036;-65
2023/08/06 01:09:54;;;;;;;3.42;2.63;;;14.00;99.90;;;;;;5062577;28;20044;-65
2023/08/06 01:12:51;;;;;;;2.58;2.35;;;14.10;99.90;;;;;;5076510;28;20131;-64
2023/08/06 01:15:30;;;;;;;4.57;2.92;;;14.00;99.90;;;;;;5080979;28;20039;-64
2023/08/06 01:17:58;;;;;;;4.18;2.72;;;14.00;99.90;;;;;;5099334;28;20419;-65
2023/08/06 01:20:31;;;;;;;2.95;2.65;;;13.90;99.90;;;;;;5081158;28;20040;-65
2023/08/06 01:23:02;;;;;;;4.80;3.10;;;13.90;99.90;;;;;;5096839;28;20034;-65
2023/08/06 01:26:01;;;;;;;3.00;2.70;;;13.90;99.90;;;;;;5077574;28;20127;-64
2023/08/06 01:28:43;;;;;;;3.47;2.92;;;13.90;99.90;;;;;;5079063;28;20047;-65
2023/08/06 01:31:22;;;;;;;3.08;2.42;;;14.00;99.90;;;;;;5066860;28;20036;-65
2023/08/06 01:33:55;;;;;;;3.90;2.72;;;14.00;99.90;;;;;;5069626;28;20039;-63
2023/08/06 01:36:28;;;;;;;4.22;2.97;;;13.90;99.90;;;;;;5082365;28;20040;-65
2023/08/06 01:39:00;;;;;;;3.83;3.03;;;13.90;99.90;;;;;;5078921;28;20043;-65
2023/08/06 01:41:27;;;;;;;4.18;2.88;;;13.90;99.90;;;;;;5099187;28;20288;-65
2023/08/06 01:43:59;;;;;;;3.28;2.88;;;13.90;99.90;;;;;;5079286;28;20044;-65
2023/08/06 01:46:31;;;;;;;2.72;2.53;;;13.90;99.90;;;;;;5077765;28;20047;-65
2023/08/06 01:49:03;;;;;;;3.53;3.10;;;13.90;99.90;;;;;;5075791;28;20036;-65
2023/08/06 01:51:35;;;;;;;3.63;2.70;;;13.90;99.90;;;;;;5081198;28;20495;-65
2023/08/06 01:54:02;;;;;;;4.78;3.30;;;13.90;99.90;;;;;;5080574;28;20050;-65
2023/08/06 01:56:34;;;;;;;3.70;3.22;;;13.90;99.90;;;;;;5071201;28;20039;-65
2023/08/06 01:59:06;;;;;;;3.15;2.65;;;13.90;99.90;;;;;;5081773;28;20032;-65
2023/08/06 02:01:38;;;;;;;3.65;3.00;;;13.90;99.90;;;;;;5069533;28;20027;-65
2023/08/06 02:04:09;;;;;;;3.72;2.55;;;13.90;99.90;;;;;;5080633;28;20091;-65
2023/08/06 02:06:41;;;;;;;3.60;3.30;;;13.90;99.90;;;;;;5076941;28;20134;-65
2023/08/06 02:09:13;;;;;;;4.35;2.90;;;14.00;99.90;;;;;;5061827;28;20040;-65
2023/08/06 02:11:45;;;;;;;6.00;3.25;;;14.00;99.90;;;;;;5077286;28;20076;-65
2023/08/06 02:14:17;;;;;;;3.85;2.90;;;14.00;99.90;;;;;;5075078;28;20042;-65
2023/08/06 02:16:50;;;;;;;4.40;3.05;;;13.90;99.90;;;;;;5084676;28;20137;-65
2023/08/06 02:19:24;;;;;;;3.67;3.10;;;13.90;99.90;;;;;;5082914;28;20036;-65
2023/08/06 02:21:56;;;;;;;3.60;3.13;;;13.90;99.90;;;;;;5084034;28;20116;-64
2023/08/06 02:24:28;;;;;;;4.20;3.72;;;13.80;99.90;;;;;;5067306;28;20048;-65
2023/08/06 02:26:56;;;;;;;3.42;3.08;;;13.80;99.90;;;;;;5086410;28;20032;-65
2023/08/06 02:29:27;;;;;;;4.07;3.27;;;13.80;99.90;;;;;;5066397;28;20047;-65
2023/08/06 02:31:55;;;;;;;3.30;3.00;;;13.80;99.90;;;;;;5096094;28;20044;-65
2023/08/06 02:34:27;;;;;;;3.95;3.55;;;13.70;99.90;;;;;;5065309;28;20031;-65
2023/08/06 02:36:58;;;;;;;3.45;3.15;;;13.70;99.90;;;;;;5101883;28;20043;-65
2023/08/06 02:39:30;;;;;;;3.58;3.28;;;13.70;99.90;;;;;;5084111;28;20647;-64
2023/08/06 02:42:03;;;;;;;3.50;3.20;;;13.70;99.90;;;;;;5084824;28;20118;-64
2023/08/06 02:44:35;;;;;;;4.03;3.60;;;13.70;99.90;;;;;;5082805;28;20048;-65
2023/08/06 02:47:07;;;;;;;6.60;3.30;;;13.70;99.90;;;;;;5099788;28;20382;-65
2023/08/06 02:49:39;;;;;;;4.47;3.03;;;13.70;99.90;;;;;;5083865;28;20071;-65
2023/08/06 02:52:11;;;;;;;5.93;3.25;;;13.70;99.90;;;;;;5086828;28;20032;-65
2023/08/06 02:54:44;;;;;;;4.25;2.90;;;13.70;99.90;;;;;;5079259;28;20470;-65
2023/08/06 02:57:16;;;;;;;3.83;2.80;;;13.70;99.90;;;;;;5083246;28;20040;-65
2023/08/06 02:59:49;;;;;;;3.33;2.85;;;13.70;99.90;;;;;;5086897;28;20060;-65
2023/08/06 03:02:22;;;;;;;5.40;2.60;;;13.80;99.90;;;;;;5094195;28;20036;-65
2023/08/06 03:05:14;;;;;;;4.10;2.50;;;13.80;99.90;;;;;;5087816;28;20100;-65
2023/08/06 03:07:47;;;;;;;4.75;2.80;;;13.90;99.90;;;;;;5084137;28;20105;-65
2023/08/06 03:10:20;;;;;;;3.58;2.85;;;13.90;99.90;;;;;;5083693;28;20043;-65
2023/08/06 03:12:54;;;;;;;5.22;2.70;;;13.90;99.90;;;;;;5081739;28;20500;-65
2023/08/06 03:15:25;;;;;;;4.65;2.58;;;13.90;99.90;;;;;;5065982;28;20032;-65
2023/08/06 03:17:58;;;;;;;3.13;2.77;;;14.00;99.90;;;;;;5083386;28;20121;-65
2023/08/06 03:20:30;;;;;;;4.30;2.50;;;14.00;99.90;;;;;;5083640;28;20047;-65
2023/08/06 03:23:03;;;;;;;4.15;3.03;;;14.00;99.90;;;;;;5084090;28;20035;-65
2023/08/06 03:25:31;;;;;;;4.15;2.83;;;14.00;99.90;;;;;;5070623;28;20118;-65
2023/08/06 03:28:03;;;;;;;4.38;2.80;;;13.90;99.90;;;;;;5069837;28;20042;-65
2023/08/06 03:30:35;;;;;;;3.42;2.40;;;13.90;99.90;;;;;;5085281;28;20085;-65
2023/08/06 03:33:09;;;;;;;4.30;2.90;;;13.90;99.90;;;;;;5068096;28;20380;-65
2023/08/06 03:35:36;;;;;;;4.45;2.85;;;13.90;99.90;;;;;;5104731;28;20028;-65
2023/08/06 03:38:08;;;;;;;2.95;2.47;;;13.90;99.90;;;;;;5082338;28;20042;-65
2023/08/06 03:40:40;;;;;;;3.33;2.78;;;13.90;99.90;;;;;;5093862;28;20040;-65
2023/08/06 03:43:12;;;;;;;3.28;2.65;;;13.90;99.90;;;;;;5071645;28;20042;-65
2023/08/06 03:45:45;;;;;;;3.10;2.45;;;13.90;99.90;;;;;;5078935;28;20096;-65
2023/08/06 03:48:17;;;;;;;5.75;2.85;;;13.90;99.90;;;;;;5067988;28;20047;-65
2023/08/06 03:50:49;;;;;;;6.15;2.72;;;13.90;99.90;;;;;;5103931;28;20485;-65
2023/08/06 03:53:21;;;;;;;4.53;2.97;;;13.90;99.90;;;;;;5082185;28;20035;-65
2023/08/06 03:55:53;;;;;;;3.85;2.63;;;13.80;99.90;;;;;;5086812;28;20048;-65
2023/08/06 03:58:26;;;;;;;4.72;2.50;;;13.80;99.90;;;;;;5082295;28;20059;-65
2023/08/06 04:01:00;;;;;;;3.20;2.53;;;13.80;99.90;;;;;;5071972;28;20112;-65
2023/08/06 04:03:38;;;;;;;3.97;2.90;;;13.80;99.90;;;;;;5078410;28;20423;-65
2023/08/06 04:06:10;;;;;;;3.97;3.05;;;13.70;99.90;;;;;;5081368;28;20039;-65
2023/08/06 04:08:42;;;;;;;3.60;2.60;;;13.70;99.90;;;;;;5072143;28;20036;-66
2023/08/06 04:11:13;;;;;;;4.88;2.75;;;13.70;99.90;;;;;;5098068;28;20044;-65
2023/08/06 04:13:45;;;;;;;4.65;3.05;;;13.80;99.90;;;;;;5082849;28;20063;-63
2023/08/06 04:16:17;;;;;;;4.55;2.63;;;13.80;99.90;;;;;;5103616;28;20040;-65
2023/08/06 04:18:49;;;;;;;3.58;2.60;;;13.80;99.90;;;;;;5084667;28;20078;-65
2023/08/06 04:21:16;;;;;;;4.70;3.08;;;13.80;99.90;;;;;;5101896;28;20041;-65
2023/08/06 04:23:47;;;;;;;4.07;3.00;;;13.80;99.90;;;;;;5077872;28;20040;-65
2023/08/06 04:26:19;;;;;;;4.28;3.20;;;13.80;99.90;;;;;;5075163;28;20048;-65
2023/08/06 04:28:51;;;;;;;4.50;2.60;;;13.80;99.90;;;;;;5065282;28;20396;-65
2023/08/06 04:31:23;;;;;;;4.65;2.38;;;13.80;99.90;;;;;;5083660;28;20036;-65
2023/08/06 04:33:56;;;;;;;2.97;2.45;;;13.80;99.90;;;;;;5083319;28;20084;-65
2023/08/06 04:36:28;;;;;;;4.07;2.70;;;13.80;99.90;;;;;;5065504;28;20468;-64
2023/08/06 04:39:00;;;;;;;4.07;2.80;;;13.80;99.90;;;;;;5083213;28;20046;-65
2023/08/06 04:41:32;;;;;;;3.42;2.97;;;13.70;99.90;;;;;;5079019;28;20131;-65
2023/08/06 04:44:04;;;;;;;3.55;2.70;;;13.70;99.90;;;;;;5084525;28;20044;-65
2023/08/06 04:46:31;;;;;;;4.47;2.80;;;13.60;99.90;;;;;;5080711;28;20044;-65
2023/08/06 04:49:03;;;;;;;4.28;2.85;;;13.60;99.90;;;;;;5081193;28;20040;-65
2023/08/06 04:51:34;;;;;;;4.65;2.83;;;13.60;99.90;;;;;;5095914;28;20032;-65
2023/08/06 04:54:06;;;;;;;3.20;2.88;;;13.60;99.90;;;;;;5097465;28;20514;-65
2023/08/06 04:56:38;;;;;;;4.13;2.70;;;13.60;99.90;;;;;;5083143;28;20503;-65
2023/08/06 04:59:05;;;;;;;4.10;2.67;;;13.60;99.90;;;;;;5099610;28;20518;-65
2023/08/06 05:01:37;;;;;;;3.05;2.65;;;13.70;99.90;;;;;;5102234;28;20047;-65
2023/08/06 05:04:09;;;;;;;3.53;2.65;;;13.70;99.90;;;;;;5102148;28;20035;-65
2023/08/06 05:06:38;;;;;;;3.83;2.60;;;13.80;99.90;;;;;;5083926;28;20040;-65
2023/08/06 05:09:09;;;;;;;4.10;3.28;;;13.90;99.90;;;;;;5093953;28;20042;-65
2023/08/06 05:11:41;;;;;;;3.47;2.42;;;13.90;99.90;;;;;;5086918;28;20136;-65
2023/08/06 05:14:13;;;;;;;2.70;2.13;;;14.00;99.90;;;;;;5080371;28;20146;-65
2023/08/06 05:16:45;;;;;;;6.70;2.80;;;14.10;99.90;;;;;;5102715;28;20050;-65
2023/08/06 05:19:17;;;;;;;3.03;2.15;;;14.20;99.90;;;;;;5102945;28;20044;-65
2023/08/06 05:21:49;;;;;;;2.50;2.30;;;14.30;99.90;;;;;;5086076;28;20063;-65
2023/08/06 05:24:20;;;;;;;3.22;2.60;;;14.30;99.90;;;;;;5079519;28;20124;-65
2023/08/06 05:26:52;;;;;;;3.13;2.40;;;14.40;99.90;;;;;;5104858;28;20130;-65
2023/08/06 05:29:24;;;;;;;4.50;2.20;;;14.40;99.90;;;;;;5075101;28;20047;-65
2023/08/06 05:31:51;;;;;;;3.17;2.05;;;14.50;99.90;;;;;;5093748;28;20131;-65
2023/08/06 05:34:23;;;;;;;3.08;2.45;;;14.50;99.90;;;;;;5100287;28;20568;-65
2023/08/06 05:36:55;;;;;;;2.75;2.08;;;14.60;99.90;;;;;;5099687;28;20049;-65
2023/08/06 05:39:27;;;;;;;3.38;2.25;;;14.60;99.90;;;;;;5066422;28;20050;-65
2023/08/06 05:41:55;;;;;;;2.15;1.77;;;14.60;99.90;;;;;;5085507;28;20126;-65
2023/08/06 05:44:26;;;;;;;3.10;2.25;;;14.60;99.90;;;;;;5088664;28;20040;-65
2023/08/06 05:46:58;;;;;;;3.95;2.13;;;14.50;99.90;;;;;;5081362;28;20454;-65
2023/08/06 05:49:30;;;;;;;2.90;1.83;;;14.50;99.90;;;;;;5079123;28;20038;-65
2023/08/06 05:52:05;;;;;;;3.63;2.05;;;14.50;99.90;;;;;;5096267;28;20035;-65
2023/08/06 05:54:38;;;;;;;3.78;2.78;;;14.40;99.90;;;;;;5097695;28;20034;-65
2023/08/06 05:57:09;;;;;;;3.60;2.78;;;14.40;99.90;;;;;;5101091;28;20523;-66
2023/08/06 05:59:36;;;;;;;5.15;2.17;;;14.30;99.90;;;;;;5104847;28;20046;-66
2023/08/06 06:02:03;;;;;;;2.47;1.73;;;14.30;99.90;;;;;;5085268;28;20060;-65
2023/08/06 06:04:35;;;;;;;3.60;2.03;;;14.30;99.90;;;;;;5101839;28;20040;-66
2023/08/06 06:07:07;;;;;;;2.83;2.00;;;14.20;99.90;;;;;;5105390;28;20040;-65
2023/08/06 06:09:34;;;;;;;2.92;2.30;;;14.20;99.90;;;;;;5082362;28;20122;-65
2023/08/06 06:12:06;;;;;;;3.10;2.40;;;14.10;99.90;;;;;;5078791;28;20503;-65
2023/08/06 06:14:33;;;;;;;3.03;2.08;;;14.10;99.90;;;;;;5101079;28;20066;-65
2023/08/06 06:17:05;;;;;;;2.38;2.15;;;14.10;99.90;;;;;;5079525;28;20033;-65
2023/08/06 06:19:37;;;;;;;3.22;2.00;;;14.00;99.90;;;;;;5096860;28;20036;-65
2023/08/06 06:22:04;;;;;;;4.32;1.95;;;13.90;99.90;;;;;;5096623;28;20237;-65
2023/08/06 06:24:35;;;;;;;2.33;1.63;;;13.90;99.90;;;;;;5088863;28;20051;-65
2023/08/06 06:27:07;;;;;;;2.22;1.60;;;13.80;99.90;;;;;;5104663;28;20522;-65
2023/08/06 06:29:39;;;;;;;2.42;1.75;;;13.80;99.90;;;;;;5098232;28;20040;-65
2023/08/06 06:32:11;;;;;;;2.78;1.50;;;13.80;99.90;;;;;;5081177;28;20038;-66
2023/08/06 06:34:38;;;;;;;2.75;1.90;;;13.70;99.90;;;;;;5083386;28;20119;-66
2023/08/06 06:37:10;;;;;;;2.15;1.60;;;13.80;99.90;;;;;;5101865;28;20040;-66
2023/08/06 06:39:42;;;;;;;2.88;1.92;;;13.80;99.90;;;;;;5099423;28;20500;-66
2023/08/06 06:42:15;;;;;;;2.70;1.70;;;13.80;99.90;;;;;;5080323;28;20051;-65
2023/08/06 06:44:50;;;;;;;2.80;1.80;;;13.80;99.90;;;;;;5087702;28;20071;-65
2023/08/06 06:47:22;;;;;;;4.10;1.70;;;13.80;99.90;;;;;;5105548;28;20061;-65
2023/08/06 06:49:54;;;;;;;3.92;1.80;;;13.90;99.90;;;;;;5107751;28;20035;-66
2023/08/06 06:52:26;;;;;;;3.78;1.80;;;13.90;99.90;;;;;;5103771;28;20113;-65
2023/08/06 06:54:58;;;;;;;3.60;1.75;;;13.90;99.90;;;;;;5071902;28;20040;-65
2023/08/06 06:57:25;;;;;;;3.85;1.73;;;13.90;99.90;;;;;;5099597;28;20119;-65
2023/08/06 06:59:56;;;;;;;3.33;1.77;;;14.00;99.90;;;;;;5058871;28;20068;-65
2023/08/06 07:02:28;;;;;;;2.40;1.67;;;14.10;99.90;;;;;;5093300;28;20032;-65
2023/08/06 07:05:00;;;;;;;2.40;1.58;;;14.20;99.90;;;;;;5098254;28;20062;-65
2023/08/06 07:07:32;;;;;;;3.83;1.67;;;14.30;99.90;;;;;;5087178;28;20108;-65
2023/08/06 07:10:05;;;;;;;2.65;1.27;;;14.40;99.90;;;;;;5099057;28;20044;-65
2023/08/06 07:12:37;;;;;;;2.78;1.33;;;14.40;99.90;;;;;;5104784;28;20039;-64
2023/08/06 07:15:06;;;;;;;2.60;1.25;;;14.50;99.90;;;;;;5103427;28;20036;-65
2023/08/06 07:17:38;;;;;;;2.08;1.20;;;14.60;99.90;;;;;;5092267;28;20129;-65
2023/08/06 07:20:11;;;;;;;3.50;1.20;;;14.70;99.90;;;;;;5085065;28;20598;-65
2023/08/06 07:22:44;;;;;;;3.05;1.20;;;14.80;99.90;;;;;;5101351;28;20050;-65
2023/08/06 07:25:11;;;;;;;2.28;1.60;;;14.80;99.90;;;;;;5063116;28;20758;-65
2023/08/06 07:27:43;;;;;;;1.27;1.00;;;14.80;99.90;;;;;;5103098;28;20036;-65
2023/08/06 07:30:15;;;;;;;2.90;1.38;;;14.90;99.90;;;;;;5104773;28;20040;-65
2023/08/06 07:32:47;;;;;;;2.45;1.20;;;15.00;99.90;;;;;;5100435;28;20129;-65
2023/08/06 07:35:19;;;;;;;2.47;1.77;;;15.20;99.90;;;;;;5085133;28;20039;-65
2023/08/06 07:37:53;;;;;;;1.42;0.90;;;15.30;99.90;;;;;;5067759;28;20043;-65
2023/08/06 07:40:25;;;;;;;0.93;0.75;;;15.40;99.90;;;;;;5099243;28;20553;-65
2023/08/06 07:42:57;;;;;;;1.55;0.73;;;15.40;99.90;;;;;;5100621;28;20057;-65
2023/08/06 07:45:33;;;;;;;2.45;0.80;;;15.40;99.90;;;;;;5079913;28;20035;-65
2023/08/06 07:48:01;;;;;;;0.60;0.50;;;15.40;99.90;;;;;;5099084;28;20089;-65
2023/08/06 07:50:33;;;;;;;1.70;1.33;;;15.50;99.90;;;;;;5100627;28;20035;-65
2023/08/06 07:53:00;;;;;;;3.30;0.63;;;15.50;99.90;;;;;;5100604;28;20123;-64
2023/08/06 07:55:32;;;;;;;1.30;0.60;;;15.50;99.90;;;;;;5072668;28;20047;-65
2023/08/06 07:58:04;;;;;;;0.70;0.50;;;15.40;99.90;;;;;;5104182;28;20040;-65
2023/08/06 08:00:35;;;;;;;3.90;0.82;;;15.40;99.90;;;;;;5063011;28;20040;-65
2023/08/06 08:03:07;;;;;;;0.68;0.52;;;15.50;99.90;;;;;;5100762;28;20127;-65
2023/08/06 08:05:39;;;;;;;2.08;0.77;;;15.50;99.90;;;;;;5084500;28;20036;-65
2023/08/06 08:08:11;;;;;;;0.73;0.60;;;15.60;99.90;;;;;;5101063;28;20043;-64
2023/08/06 08:10:43;;;;;;;1.67;0.80;;;15.60;99.90;;;;;;5095419;28;20032;-64
2023/08/06 08:13:15;;;;;;;0.98;0.63;;;15.50;99.90;;;;;;5100791;28;20089;-64
2023/08/06 08:15:42;;;;;;;3.00;0.70;;;15.50;99.90;;;;;;5100237;28;20138;-64
2023/08/06 08:18:13;;;;;;;1.75;0.60;;;15.60;99.90;;;;;;5083845;28;20508;-64
2023/08/06 08:20:45;;;;;;;1.17;0.77;;;15.70;99.90;;;;;;5081280;28;20054;-64
2023/08/06 08:23:17;;;;;;;2.78;0.60;;;15.80;99.90;;;;;;5080291;28;20153;-64
2023/08/06 08:25:44;;;;;;;2.17;0.60;;;15.80;99.90;;;;;;5102575;28;20100;-64
2023/08/06 08:28:16;;;;;;;2.88;0.70;;;15.70;99.90;;;;;;5101743;28;20070;-62
2023/08/06 08:30:48;;;;;;;2.90;0.55;;;15.50;99.90;;;;;;5090198;28;20047;-64
2023/08/06 08:33:21;;;;;;;1.05;0.60;;;15.30;99.90;;;;;;5080878;28;20074;-64
2023/08/06 08:35:48;;;;;;;1.10;0.50;;;15.20;99.90;;;;;;5081544;28;20048;-64
2023/08/06 08:38:20;;;;;;;1.55;0.55;;;15.20;99.90;;;;;;5100770;28;20040;-64
2023/08/06 08:40:49;;;;;;;0.85;0.50;;;15.30;99.90;;;;;;5084879;28;20046;-64
2023/08/06 08:43:22;;;;;;;1.63;0.55;;;15.30;99.90;;;;;;5099563;28;20145;-64
2023/08/06 08:45:55;;;;;;;1.57;0.43;;;15.10;99.90;;;;;;5099801;28;20089;-64
2023/08/06 08:48:22;;;;;;;1.00;0.45;;;15.10;99.90;;;;;;5085912;28;20127;-64
2023/08/06 08:50:50;;;;;;;2.63;0.35;;;15.00;99.90;;;;;;5097034;28;20032;-64
2023/08/06 08:53:22;;;;;;;1.20;0.20;;;15.00;99.90;;;;;;5074734;28;20701;-64
2023/08/06 08:55:55;;;;;;;0.70;0.30;;;15.00;99.90;;;;;;5098160;28;20051;-64
2023/08/06 08:58:26;;;;;;;0.55;0.40;;;15.00;99.90;;;;;;5081514;28;20063;-64
2023/08/06 09:00:58;;;;;;;1.65;0.40;;;15.00;99.90;;;;;;5100132;28;20577;-64
2023/08/06 09:03:31;;;;;;;0.82;0.40;;;15.00;99.90;;;;;;5088657;22;20155;-64
2023/08/06 09:06:04;;;;;;;0.28;0.20;;;15.00;99.90;;;;;;5071214;28;20522;-64
2023/08/06 09:08:45;;;;;;;0.35;0.20;;;15.00;99.90;;;;;;5088365;28;20040;-65
2023/08/06 09:11:12;;;;;;;0.30;0.20;;;14.90;99.90;;;;;;5089116;28;20540;-64
2023/08/06 09:13:44;;;;;;;1.95;0.30;;;15.00;99.90;;;;;;5056732;28;20047;-64
2023/08/06 09:16:16;;;;;;;0.22;0.22;;;15.00;99.90;;;;;;5058503;28;21312;-64
2023/08/06 09:18:43;;;;;;;0.38;0.32;;;14.90;99.90;;;;;;5069866;28;20040;-64
2023/08/06 09:21:15;;;;;;;0.80;0.38;;;14.80;99.90;;;;;;5067977;28;20467;-64
2023/08/06 09:23:47;;;;;;;1.30;0.40;;;14.80;99.90;;;;;;5048249;28;20041;-64
2023/08/06 09:26:19;;;;;;;3.30;0.30;;;14.80;99.90;;;;;;5068357;28;20029;-64
2023/08/06 09:28:52;;;;;;;3.33;0.40;;;14.90;99.90;;;;;;5067341;28;20044;-69
2023/08/06 09:31:24;;;;;;;;;;;14.80;99.90;;;;;;5073752;28;20043;-67
2023/08/06 09:33:51;;;;;;;2.83;0.52;;;15.00;99.90;;;;;;5068526;28;19927;-67
2023/08/06 09:36:23;;;;;;;0.35;0.30;;;15.10;99.90;;;;;;5071602;28;20058;-68
2023/08/06 09:38:54;;;;;;;1.10;0.30;;;15.20;99.90;;;;;;5070001;28;20055;-65
2023/08/06 09:41:30;;;;;;;1.75;0.30;;;15.30;99.90;;;;;;5070943;28;20084;-65
2023/08/06 09:44:02;;;;;;;1.00;0.30;;;15.40;99.90;;;;;;5066332;28;20040;-66
2023/08/06 09:46:34;;;;;;;1.25;0.40;;;15.40;99.90;;;;;;5073348;28;20048;-67
2023/08/06 09:49:01;;;;;;;0.75;0.30;;;15.40;99.90;;;;;;5072944;28;20131;-65
2023/08/06 09:51:34;;;;;;;0.50;0.30;;;15.30;99.90;;;;;;5036684;28;20043;-65
2023/08/06 09:54:07;;;;;;;0.93;0.60;;;15.20;99.90;;;;;;5050441;28;20037;-65
2023/08/06 09:56:40;;;;;;;;;;;15.10;99.90;;;;;;5072662;28;20033;-68
2023/08/06 09:59:07;;;;;;;0.32;0.20;;;15.00;99.90;;;;;;5072487;28;20411;-65
2023/08/06 10:01:38;;;;;;;0.50;0.30;;;15.00;99.90;;;;;;5070488;28;20055;-65
2023/08/06 10:04:12;;;;;;;0.95;0.55;;;15.00;99.90;;;;;;5071721;28;20048;-68
2023/08/06 10:06:50;;;;;;;1.33;0.30;;;15.00;99.90;;;;;;5034340;28;20044;-67
2023/08/06 10:09:23;;;;;;;1.25;0.25;;;15.10;99.90;;;;;;5069570;28;20033;-65
2023/08/06 10:11:57;;;;;;;0.45;0.30;;;15.20;99.90;;;;;;5073825;28;20825;-65
2023/08/06 10:14:36;;;;;;;0.93;0.40;;;15.30;99.90;;;;;;5070405;28;20051;-66
2023/08/06 10:17:09;;;;;;;0.82;0.28;;;15.30;99.90;;;;;;5055649;28;20043;-66
2023/08/06 10:19:42;;;;;;;0.43;0.20;;;15.10;99.90;;;;;;5068256;28;20056;-66
2023/08/06 10:22:17;;;;;;;0.65;0.20;;;15.00;99.90;;;;;;5070741;28;21825;-66
2023/08/06 10:24:53;;;;;;;1.33;0.20;;;14.60;99.90;;;;;;5078438;28;20048;-66
2023/08/06 10:27:31;;;;;;;1.00;0.30;;;14.20;99.90;;;;;;5076120;28;20048;-66
2023/08/06 10:30:32;;;;;;;0.50;0.20;;;14.20;99.90;;;;;;5073754;28;20048;-65
2023/08/06 10:33:04;;;;;;;0.75;0.20;;;14.20;99.90;;;;;;5064529;28;20044;-65
2023/08/06 10:35:37;;;;;;;1.85;0.28;;;14.30;99.90;;;;;;5054462;28;20043;-65
2023/08/06 10:38:10;;;;;;;0.50;0.20;;;14.30;99.90;;;;;;5071428;28;20047;-65
2023/08/06 10:40:40;;;;;;;0.38;0.20;;;14.50;99.90;;;;;;5074240;28;20044;-65
2023/08/06 10:43:24;;;;;;;0.45;0.22;;;14.60;99.90;;;;;;5057827;28;20055;-65
2023/08/06 10:45:58;;;;;;;0.45;0.20;;;14.80;99.90;;;;;;5060028;28;20048;-65
2023/08/06 10:48:38;;;;;;;0.40;0.40;;;14.70;99.90;;;;;;5075987;28;20036;-65
2023/08/06 10:51:14;;;;;;;0.88;0.22;;;14.80;99.90;;;;;;5076314;28;20068;-65
2023/08/06 10:53:48;;;;;;;0.95;0.20;;;14.60;99.90;;;;;;5072285;28;20029;-63
2023/08/06 10:56:19;;;;;;;0.20;0.20;;;14.60;99.90;;;;;;5071496;28;20057;-65
2023/08/06 10:58:47;;;;;;;0.73;0.20;;;14.60;99.90;;;;;;5075110;28;20040;-65
2023/08/06 11:01:21;;;;;;;0.38;0.20;;;14.60;99.90;;;;;;5073756;28;20033;-65
2023/08/06 11:03:53;;;;;;;0.70;0.20;;;14.50;99.90;;;;;;5054176;28;20181;-65
2023/08/06 11:06:26;;;;;;;0.38;0.20;;;14.50;99.90;;;;;;5075742;28;20036;-65
2023/08/06 11:08:54;;;;;;;0.40;0.20;;;14.50;99.90;;;;;;5081808;28;20040;-65
2023/08/06 11:11:23;;;;;;;0.15;0.13;;;14.60;99.90;;;;;;5076910;28;20407;-66
2023/08/06 11:13:55;;;;;;;0.82;0.20;;;14.70;99.90;;;;;;5077746;28;20050;-65
2023/08/06 11:16:26;;;;;;;0.10;0.10;;;15.10;99.90;;;;;;5075469;28;20037;-65
2023/08/06 11:18:54;;;;;;;0.65;0.17;;;15.40;99.90;;;;;;5076170;28;20119;-65
2023/08/06 11:21:26;;;;;;;0.30;0.20;;;15.60;99.90;;;;;;5058916;28;20052;-62
2023/08/06 11:23:57;;;;;;;0.20;0.20;;;15.80;99.90;;;;;;5074181;28;20036;-67
2023/08/06 11:26:29;;;;;;;0.55;0.20;;;15.80;99.90;;;;;;5070318;28;20033;-65
2023/08/06 11:29:02;;;;;;;1.40;0.28;;;15.70;99.90;;;;;;5075022;28;20039;-64
2023/08/06 11:31:36;;;;;;;1.45;0.30;;;15.70;99.90;;;;;;5055786;28;20056;-65
2023/08/06 11:34:09;;;;;;;1.55;0.20;;;15.70;99.90;;;;;;5053520;28;20039;-65
2023/08/06 11:36:41;;;;;;;0.10;0.10;;;15.90;99.90;;;;;;5068675;28;20546;-64
2023/08/06 11:39:13;;;;;;;0.20;0.20;;;15.80;99.90;;;;;;5072484;28;20124;-65
2023/08/06 11:41:46;;;;;;;0.85;0.50;;;15.70;99.90;;;;;;5069894;28;20063;-65
2023/08/06 11:44:22;;;;;;;0.30;0.20;;;15.80;99.90;;;;;;5068427;28;20032;-66
2023/08/06 11:47:00;;;;;;;0.13;0.10;;;15.50;99.90;;;;;;5073240;28;20858;-65
2023/08/06 11:49:49;;;;;;;0.38;0.22;;;15.40;99.90;;;;;;5070836;28;20036;-66
2023/08/06 11:52:18;;;;;;;0.40;0.20;;;15.30;99.90;;;;;;5070822;28;20040;-66
2023/08/06 11:55:02;;;;;;;0.10;0.10;;;15.30;99.90;;;;;;5042420;28;20371;-66
2023/08/06 11:57:35;;;;;;;0.13;0.13;;;15.20;99.90;;;;;;5074311;28;20150;-66
2023/08/06 12:00:12;;;;;;;0.10;0.10;;;15.20;99.90;;;;;;5038170;28;20044;-66
2023/08/06 12:02:42;;;;;;;0.30;0.10;;;15.20;99.90;;;;;;5068928;28;20044;-66
2023/08/06 12:05:13;;;;;;;0.47;0.10;;;15.20;99.90;;;;;;5051842;28;20139;-68
2023/08/06 12:07:50;;;;;;;0.95;0.32;;;15.00;99.90;;;;;;5075198;28;20036;-64
2023/08/06 12:10:24;;;;;;;0.35;0.20;;;14.80;99.90;;;;;;5076572;28;20408;-66
2023/08/06 12:12:56;;;;;;;0.50;0.30;;;14.60;99.90;;;;;;5073397;28;20032;-66
2023/08/06 12:15:28;;;;;;;0.65;0.20;;;14.50;99.90;;;;;;5078023;28;20497;-66
2023/08/06 12:18:00;;;;;;;0.20;0.20;;;14.30;99.90;;;;;;5041577;28;20043;-65
2023/08/06 12:20:32;;;;;;;0.28;0.20;;;14.10;99.90;;;;;;5079272;28;20489;-66
2023/08/06 12:23:04;;;;;;;0.90;0.20;;;14.20;99.90;;;;;;5059343;28;20104;-66
2023/08/06 12:25:31;;;;;;;0.13;0.13;;;14.20;99.90;;;;;;5077515;28;20045;-66
2023/08/06 12:28:03;;;;;;;0.40;0.30;;;14.20;99.90;;;;;;5076721;28;20040;-66
2023/08/06 12:30:30;;;;;;;0.20;0.20;;;14.30;99.90;;;;;;5073495;28;20449;-66
2023/08/06 12:33:01;;;;;;;0.20;0.20;;;14.40;99.90;;;;;;5042401;28;20041;-65
2023/08/06 12:35:33;;;;;;;0.30;0.20;;;14.40;99.90;;;;;;5061155;28;20039;-66
2023/08/06 12:38:06;;;;;;;0.22;0.20;;;14.50;99.90;;;;;;5043387;28;20044;-66
2023/08/06 12:40:33;;;;;;;3.72;0.30;;;14.60;99.90;;;;;;5071328;28;20067;-66
2023/08/06 12:43:00;;;;;;;0.20;0.20;;;14.60;99.90;;;;;;5070822;28;20132;-65
2023/08/06 12:45:27;;;;;;;0.20;0.20;;;14.60;99.90;;;;;;5051636;28;20504;-66
2023/08/06 12:47:54;;;;;;;0.20;0.20;;;14.60;99.90;;;;;;5072000;28;20128;-66
2023/08/06 12:50:20;;;;;;;0.20;0.20;;;14.50;99.90;;;;;;5057597;28;20063;-66
2023/08/06 12:52:47;;;;;;;0.30;0.20;;;14.60;99.90;;;;;;5056812;28;20151;-65
2023/08/06 12:55:19;;;;;;;0.30;0.30;;;14.60;99.90;;;;;;5074359;28;20040;-66
2023/08/06 12:57:51;;;;;;;0.20;0.20;;;14.60;99.90;;;;;;5071384;28;20437;-66
2023/08/06 13:00:24;;;;;;;0.30;0.20;;;14.50;99.90;;;;;;5059214;28;20059;-66
2023/08/06 13:02:51;;;;;;;0.43;0.40;;;14.60;99.90;;;;;;5074385;28;20100;-66
2023/08/06 13:05:17;;;;;;;0.40;0.20;;;14.50;99.90;;;;;;5079639;28;20627;-66
2023/08/06 13:07:49;;;;;;;0.82;0.30;;;14.30;99.90;;;;;;5073291;28;20036;-65
2023/08/06 13:10:22;;;;;;;0.52;0.20;;;14.30;99.90;;;;;;5073344;28;20044;-66
2023/08/06 13:12:50;;;;;;;0.25;0.20;;;14.30;99.90;;;;;;5070331;28;20046;-66